sensor_id;sensor_type;location;lat;lon;timestamp;temperature;humidity
40816;DHT22;26535;48.788;9.214;2024-01-30T00:02:12;3.30;99.90
40816;DHT22;26535;48.788;9.214;2024-01-30T00:04:38;3.30;99.90
40816;DHT22;26535;48.788;9.214;2024-01-30T00:07:04;3.30;99.90
40816;DHT22;26535;48.788;9.214;2024-01-30T00:09:30;3.30;99.90
40816;DHT22;26535;48.788;9.214;2024-01-30T00:11:56;3.30;99.90
40816;DHT22;26535;48.788;9.214;2024-01-30T00:14:21;3.20;99.90
40816;DHT22;26535;48.788;9.214;2024-01-30T00:16:48;3.30;99.90
40816;DHT22;26535;48.788;9.214;2024-01-30T00:19:14;3.30;99.90
40816;DHT22;26535;48.788;9.214;2024-01-30T00:21:40;3.30;99.90
40816;DHT22;26535;48.788;9.214;2024-01-30T00:24:06;3.30;99.90
40816;DHT22;26535;48.788;9.214;2024-01-30T00:26:32;3.30;99.90
40816;DHT22;26535;48.788;9.214;2024-01-30T00:28:57;3.20;99.90
40816;DHT22;26535;48.788;9.214;2024-01-30T00:31:24;3.20;99.90
40816;DHT22;26535;48.788;9.214;2024-01-30T00:33:50;3.20;99.90
40816;DHT22;26535;48.788;9.214;2024-01-30T00:36:16;3.20;99.90
40816;DHT22;26535;48.788;9.214;2024-01-30T00:38:41;3.20;99.90
40816;DHT22;26535;48.788;9.214;2024-01-30T00:41:10;3.30;99.90
40816;DHT22;26535;48.788;9.214;2024-01-30T00:43:36;3.30;99.90
40816;DHT22;26535;48.788;9.214;2024-01-30T00:46:02;3.30;99.90
40816;DHT22;26535;48.788;9.214;2024-01-30T00:48:28;3.30;99.90
40816;DHT22;26535;48.788;9.214;2024-01-30T00:50:54;3.40;99.90
40816;DHT22;26535;48.788;9.214;2024-01-30T00:53:20;3.40;99.90
40816;DHT22;26535;48.788;9.214;2024-01-30T00:55:45;3.40;99.90
40816;DHT22;26535;48.788;9.214;2024-01-30T00:58:11;3.40;99.90
40816;DHT22;26535;48.788;9.214;2024-01-30T01:00:37;3.40;99.90
40816;DHT22;26535;48.788;9.214;2024-01-30T01:03:03;3.30;99.90
40816;DHT22;26535;48.788;9.214;2024-01-30T01:05:28;3.30;99.90
40816;DHT22;26535;48.788;9.214;2024-01-30T01:07:54;3.30;99.90
40816;DHT22;26535;48.788;9.214;2024-01-30T01:10:20;3.20;99.90
40816;DHT22;26535;48.788;9.214;2024-01-30T01:12:46;3.20;99.90
40816;DHT22;26535;48.788;9.214;2024-01-30T01:15:12;3.20;99.90
40816;DHT22;26535;48.788;9.214;2024-01-30T01:17:38;3.10;99.90
40816;DHT22;26535;48.788;9.214;2024-01-30T01:20:05;3.20;99.90
40816;DHT22;26535;48.788;9.214;2024-01-30T01:22:32;3.10;99.90
40816;DHT22;26535;48.788;9.214;2024-01-30T01:24:58;3.10;99.90
40816;DHT22;26535;48.788;9.214;2024-01-30T01:27:24;3.10;99.90
40816;DHT22;26535;48.788;9.214;2024-01-30T01:29:51;3.00;99.90
40816;DHT22;26535;48.788;9.214;2024-01-30T01:32:16;3.00;99.90
40816;DHT22;26535;48.788;9.214;2024-01-30T01:34:42;2.90;99.90
40816;DHT22;26535;48.788;9.214;2024-01-30T01:37:08;2.90;99.90
40816;DHT22;26535;48.788;9.214;2024-01-30T01:39:34;2.80;99.90
40816;DHT22;26535;48.788;9.214;2024-01-30T01:41:59;2.80;99.90
40816;DHT22;26535;48.788;9.214;2024-01-30T01:44:25;2.80;99.90
40816;DHT22;26535;48.788;9.214;2024-01-30T01:46:51;2.80;99.90
40816;DHT22;26535;48.788;9.214;2024-01-30T01:49:30;2.80;99.90
40816;DHT22;26535;48.788;9.214;2024-01-30T01:52:19;2.80;99.90
40816;DHT22;26535;48.788;9.214;2024-01-30T01:54:45;2.80;99.90
40816;DHT22;26535;48.788;9.214;2024-01-30T01:57:10;2.70;99.90
40816;DHT22;26535;48.788;9.214;2024-01-30T01:59:36;2.80;99.90
40816;DHT22;26535;48.788;9.214;2024-01-30T02:02:02;2.70;99.90
40816;DHT22;26535;48.788;9.214;2024-01-30T02:04:29;2.70;99.90
40816;DHT22;26535;48.788;9.214;2024-01-30T02:06:54;2.70;99.90
40816;DHT22;26535;48.788;9.214;2024-01-30T02:09:20;2.70;99.90
40816;DHT22;26535;48.788;9.214;2024-01-30T02:11:46;2.70;99.90
40816;DHT22;26535;48.788;9.214;2024-01-30T02:14:12;2.70;99.90
40816;DHT22;26535;48.788;9.214;2024-01-30T02:16:37;2.60;99.90
40816;DHT22;26535;48.788;9.214;2024-01-30T02:19:03;2.60;99.90
40816;DHT22;26535;48.788;9.214;2024-01-30T02:21:28;2.60;99.90
40816;DHT22;26535;48.788;9.214;2024-01-30T02:23:54;2.60;99.90
40816;DHT22;26535;48.788;9.214;2024-01-30T02:26:21;2.60;99.90
40816;DHT22;26535;48.788;9.214;2024-01-30T02:28:47;2.60;99.90
40816;DHT22;26535;48.788;9.214;2024-01-30T02:31:12;2.60;99.90
40816;DHT22;26535;48.788;9.214;2024-01-30T02:33:38;2.50;99.90
40816;DHT22;26535;48.788;9.214;2024-01-30T02:36:04;2.60;99.90
40816;DHT22;26535;48.788;9.214;2024-01-30T02:38:30;2.60;99.90
40816;DHT22;26535;48.788;9.214;2024-01-30T02:40:55;2.60;99.90
40816;DHT22;26535;48.788;9.214;2024-01-30T02:43:22;2.50;99.90
40816;DHT22;26535;48.788;9.214;2024-01-30T02:45:47;2.50;99.90
40816;DHT22;26535;48.788;9.214;2024-01-30T02:48:13;2.50;99.90
40816;DHT22;26535;48.788;9.214;2024-01-30T02:50:39;2.50;99.90
40816;DHT22;26535;48.788;9.214;2024-01-30T02:53:04;2.50;99.90
40816;DHT22;26535;48.788;9.214;2024-01-30T02:55:30;2.40;99.90
40816;DHT22;26535;48.788;9.214;2024-01-30T02:57:56;2.40;99.90
40816;DHT22;26535;48.788;9.214;2024-01-30T03:00:21;2.40;99.90
40816;DHT22;26535;48.788;9.214;2024-01-30T03:02:47;2.40;99.90
40816;DHT22;26535;48.788;9.214;2024-01-30T03:05:13;2.30;99.90
40816;DHT22;26535;48.788;9.214;2024-01-30T03:07:38;2.30;99.90
40816;DHT22;26535;48.788;9.214;2024-01-30T03:10:05;2.20;99.90
40816;DHT22;26535;48.788;9.214;2024-01-30T03:12:31;2.20;99.90
40816;DHT22;26535;48.788;9.214;2024-01-30T03:14:57;2.20;99.90
40816;DHT22;26535;48.788;9.214;2024-01-30T03:17:23;2.20;99.90
40816;DHT22;26535;48.788;9.214;2024-01-30T03:19:49;2.20;99.90
40816;DHT22;26535;48.788;9.214;2024-01-30T03:22:15;2.10;99.90
40816;DHT22;26535;48.788;9.214;2024-01-30T03:24:41;2.10;99.90
40816;DHT22;26535;48.788;9.214;2024-01-30T03:27:08;2.10;99.90
40816;DHT22;26535;48.788;9.214;2024-01-30T03:29:33;2.20;99.90
40816;DHT22;26535;48.788;9.214;2024-01-30T03:31:59;2.20;99.90
40816;DHT22;26535;48.788;9.214;2024-01-30T03:34:25;2.10;99.90
40816;DHT22;26535;48.788;9.214;2024-01-30T03:36:50;2.10;99.90
40816;DHT22;26535;48.788;9.214;2024-01-30T03:39:16;2.10;99.90
40816;DHT22;26535;48.788;9.214;2024-01-30T03:41:42;2.10;99.90
40816;DHT22;26535;48.788;9.214;2024-01-30T03:44:10;2.10;99.90
40816;DHT22;26535;48.788;9.214;2024-01-30T03:46:35;2.10;99.90
40816;DHT22;26535;48.788;9.214;2024-01-30T03:49:01;2.00;99.90
40816;DHT22;26535;48.788;9.214;2024-01-30T03:51:27;2.00;99.90
40816;DHT22;26535;48.788;9.214;2024-01-30T03:53:53;2.00;99.90
40816;DHT22;26535;48.788;9.214;2024-01-30T03:56:18;2.10;99.90
40816;DHT22;26535;48.788;9.214;2024-01-30T03:58:44;2.10;99.90
40816;DHT22;26535;48.788;9.214;2024-01-30T04:01:14;2.00;99.90
40816;DHT22;26535;48.788;9.214;2024-01-30T04:03:40;2.00;99.90
40816;DHT22;26535;48.788;9.214;2024-01-30T04:06:06;2.00;99.90
40816;DHT22;26535;48.788;9.214;2024-01-30T04:08:32;1.90;99.90
40816;DHT22;26535;48.788;9.214;2024-01-30T04:10:58;1.90;99.90
40816;DHT22;26535;48.788;9.214;2024-01-30T04:13:23;1.90;99.90
40816;DHT22;26535;48.788;9.214;2024-01-30T04:15:49;2.00;99.90
40816;DHT22;26535;48.788;9.214;2024-01-30T04:18:14;2.00;99.90
40816;DHT22;26535;48.788;9.214;2024-01-30T04:20:40;2.00;99.90
40816;DHT22;26535;48.788;9.214;2024-01-30T04:23:06;2.00;99.90
40816;DHT22;26535;48.788;9.214;2024-01-30T04:25:31;2.00;99.90
40816;DHT22;26535;48.788;9.214;2024-01-30T04:27:57;1.90;99.90
40816;DHT22;26535;48.788;9.214;2024-01-30T04:30:23;1.90;99.90
40816;DHT22;26535;48.788;9.214;2024-01-30T04:32:48;1.90;99.90
40816;DHT22;26535;48.788;9.214;2024-01-30T04:35:14;1.80;99.90
40816;DHT22;26535;48.788;9.214;2024-01-30T04:37:40;1.80;99.90
40816;DHT22;26535;48.788;9.214;2024-01-30T04:40:06;1.80;99.90
40816;DHT22;26535;48.788;9.214;2024-01-30T04:42:32;1.90;99.90
40816;DHT22;26535;48.788;9.214;2024-01-30T04:44:57;1.90;99.90
40816;DHT22;26535;48.788;9.214;2024-01-30T04:47:23;1.90;99.90
40816;DHT22;26535;48.788;9.214;2024-01-30T04:49:49;1.90;99.90
40816;DHT22;26535;48.788;9.214;2024-01-30T04:52:15;1.80;99.90
40816;DHT22;26535;48.788;9.214;2024-01-30T04:54:41;1.80;99.90
40816;DHT22;26535;48.788;9.214;2024-01-30T04:57:07;1.90;99.90
40816;DHT22;26535;48.788;9.214;2024-01-30T04:59:35;1.80;99.90
40816;DHT22;26535;48.788;9.214;2024-01-30T05:02:01;1.80;99.90
40816;DHT22;26535;48.788;9.214;2024-01-30T05:04:27;1.80;99.90
40816;DHT22;26535;48.788;9.214;2024-01-30T05:06:53;1.70;99.90
40816;DHT22;26535;48.788;9.214;2024-01-30T05:09:18;1.70;99.90
40816;DHT22;26535;48.788;9.214;2024-01-30T05:11:44;1.70;99.90
40816;DHT22;26535;48.788;9.214;2024-01-30T05:14:10;1.80;99.90
40816;DHT22;26535;48.788;9.214;2024-01-30T05:16:37;1.80;99.90
40816;DHT22;26535;48.788;9.214;2024-01-30T05:19:03;1.80;99.90
40816;DHT22;26535;48.788;9.214;2024-01-30T05:21:28;1.80;99.90
40816;DHT22;26535;48.788;9.214;2024-01-30T05:23:54;1.80;99.90
40816;DHT22;26535;48.788;9.214;2024-01-30T05:26:20;1.90;99.90
40816;DHT22;26535;48.788;9.214;2024-01-30T05:28:45;1.90;99.90
40816;DHT22;26535;48.788;9.214;2024-01-30T05:31:11;1.90;99.90
40816;DHT22;26535;48.788;9.214;2024-01-30T05:33:37;2.00;99.90
40816;DHT22;26535;48.788;9.214;2024-01-30T05:36:03;2.00;99.90
40816;DHT22;26535;48.788;9.214;2024-01-30T05:38:29;2.00;99.90
40816;DHT22;26535;48.788;9.214;2024-01-30T05:40:55;2.10;99.90
40816;DHT22;26535;48.788;9.214;2024-01-30T05:43:23;2.20;99.90
40816;DHT22;26535;48.788;9.214;2024-01-30T05:45:49;2.30;99.90
40816;DHT22;26535;48.788;9.214;2024-01-30T05:48:15;2.30;99.90
40816;DHT22;26535;48.788;9.214;2024-01-30T05:50:40;2.20;99.90
40816;DHT22;26535;48.788;9.214;2024-01-30T05:53:06;2.30;99.90
40816;DHT22;26535;48.788;9.214;2024-01-30T05:55:32;2.30;99.90
40816;DHT22;26535;48.788;9.214;2024-01-30T05:57:57;2.30;99.90
40816;DHT22;26535;48.788;9.214;2024-01-30T06:00:23;2.30;99.90
40816;DHT22;26535;48.788;9.214;2024-01-30T06:02:49;2.30;99.90
40816;DHT22;26535;48.788;9.214;2024-01-30T06:05:14;2.20;99.90
40816;DHT22;26535;48.788;9.214;2024-01-30T06:07:40;2.20;99.90
40816;DHT22;26535;48.788;9.214;2024-01-30T06:10:06;2.10;99.90
40816;DHT22;26535;48.788;9.214;2024-01-30T06:12:33;2.10;99.90
40816;DHT22;26535;48.788;9.214;2024-01-30T06:14:58;2.10;99.90
40816;DHT22;26535;48.788;9.214;2024-01-30T06:17:24;2.00;99.90
40816;DHT22;26535;48.788;9.214;2024-01-30T06:19:50;2.00;99.90
40816;DHT22;26535;48.788;9.214;2024-01-30T06:22:16;1.90;99.90
40816;DHT22;26535;48.788;9.214;2024-01-30T06:24:42;1.90;99.90
40816;DHT22;26535;48.788;9.214;2024-01-30T06:27:10;1.90;99.90
40816;DHT22;26535;48.788;9.214;2024-01-30T06:29:36;1.80;99.90
40816;DHT22;26535;48.788;9.214;2024-01-30T06:32:01;1.80;99.90
40816;DHT22;26535;48.788;9.214;2024-01-30T06:34:27;1.80;99.90
40816;DHT22;26535;48.788;9.214;2024-01-30T06:36:53;1.70;99.90
40816;DHT22;26535;48.788;9.214;2024-01-30T06:39:18;1.70;99.90
40816;DHT22;26535;48.788;9.214;2024-01-30T06:41:44;1.80;99.90
40816;DHT22;26535;48.788;9.214;2024-01-30T06:44:12;1.70;99.90
40816;DHT22;26535;48.788;9.214;2024-01-30T06:46:38;1.70;99.90
40816;DHT22;26535;48.788;9.214;2024-01-30T06:49:04;1.80;99.90
40816;DHT22;26535;48.788;9.214;2024-01-30T06:51:30;1.80;99.90
40816;DHT22;26535;48.788;9.214;2024-01-30T06:53:56;1.80;99.90
40816;DHT22;26535;48.788;9.214;2024-01-30T06:56:21;1.90;99.90
40816;DHT22;26535;48.788;9.214;2024-01-30T06:58:48;1.90;99.90
40816;DHT22;26535;48.788;9.214;2024-01-30T07:01:15;2.00;99.90
40816;DHT22;26535;48.788;9.214;2024-01-30T07:03:41;2.00;99.90
40816;DHT22;26535;48.788;9.214;2024-01-30T07:06:07;2.10;99.90
40816;DHT22;26535;48.788;9.214;2024-01-30T07:08:33;2.10;99.90
40816;DHT22;26535;48.788;9.214;2024-01-30T07:10:59;2.10;99.90
40816;DHT22;26535;48.788;9.214;2024-01-30T07:13:25;2.20;99.90
40816;DHT22;26535;48.788;9.214;2024-01-30T07:15:56;2.10;99.90
40816;DHT22;26535;48.788;9.214;2024-01-30T07:18:38;2.10;99.90
40816;DHT22;26535;48.788;9.214;2024-01-30T07:21:20;2.10;99.90
40816;DHT22;26535;48.788;9.214;2024-01-30T07:24:03;2.20;99.90
40816;DHT22;26535;48.788;9.214;2024-01-30T07:26:29;2.30;99.90
40816;DHT22;26535;48.788;9.214;2024-01-30T07:28:58;2.30;99.90
40816;DHT22;26535;48.788;9.214;2024-01-30T07:31:23;2.30;99.90
40816;DHT22;26535;48.788;9.214;2024-01-30T07:34:12;2.40;99.90
40816;DHT22;26535;48.788;9.214;2024-01-30T07:36:37;2.50;99.90
40816;DHT22;26535;48.788;9.214;2024-01-30T07:42:03;2.60;99.90
40816;DHT22;26535;48.788;9.214;2024-01-30T07:44:38;2.60;99.90
40816;DHT22;26535;48.788;9.214;2024-01-30T07:47:05;2.70;99.90
40816;DHT22;26535;48.788;9.214;2024-01-30T07:49:31;2.70;99.90
40816;DHT22;26535;48.788;9.214;2024-01-30T07:52:09;2.80;99.90
40816;DHT22;26535;48.788;9.214;2024-01-30T07:55:05;2.90;99.90
40816;DHT22;26535;48.788;9.214;2024-01-30T07:57:58;2.90;99.90
40816;DHT22;26535;48.788;9.214;2024-01-30T08:00:29;3.00;99.90
40816;DHT22;26535;48.788;9.214;2024-01-30T08:02:55;3.00;99.90
40816;DHT22;26535;48.788;9.214;2024-01-30T08:05:21;3.10;99.90
40816;DHT22;26535;48.788;9.214;2024-01-30T08:07:50;3.20;99.90
40816;DHT22;26535;48.788;9.214;2024-01-30T08:10:16;3.30;99.90
40816;DHT22;26535;48.788;9.214;2024-01-30T08:12:44;3.40;99.90
40816;DHT22;26535;48.788;9.214;2024-01-30T08:15:13;3.50;99.90
40816;DHT22;26535;48.788;9.214;2024-01-30T08:17:40;3.60;99.90
40816;DHT22;26535;48.788;9.214;2024-01-30T08:20:06;3.70;99.90
40816;DHT22;26535;48.788;9.214;2024-01-30T08:22:33;3.80;99.90
40816;DHT22;26535;48.788;9.214;2024-01-30T08:24:59;3.80;99.90
40816;DHT22;26535;48.788;9.214;2024-01-30T08:27:25;3.90;99.90
40816;DHT22;26535;48.788;9.214;2024-01-30T08:30:14;4.00;99.90
40816;DHT22;26535;48.788;9.214;2024-01-30T08:32:40;4.20;99.90
40816;DHT22;26535;48.788;9.214;2024-01-30T08:35:06;4.30;99.90
40816;DHT22;26535;48.788;9.214;2024-01-30T08:37:32;4.40;99.90
40816;DHT22;26535;48.788;9.214;2024-01-30T08:39:57;4.40;99.90
40816;DHT22;26535;48.788;9.214;2024-01-30T08:42:23;4.60;99.90
40816;DHT22;26535;48.788;9.214;2024-01-30T08:44:49;4.80;99.90
40816;DHT22;26535;48.788;9.214;2024-01-30T08:47:16;4.90;99.90
40816;DHT22;26535;48.788;9.214;2024-01-30T08:49:44;4.90;99.90
40816;DHT22;26535;48.788;9.214;2024-01-30T08:52:10;5.10;99.90
40816;DHT22;26535;48.788;9.214;2024-01-30T08:54:36;5.20;99.90
40816;DHT22;26535;48.788;9.214;2024-01-30T08:57:02;5.30;99.90
40816;DHT22;26535;48.788;9.214;2024-01-30T08:59:33;5.40;99.90
40816;DHT22;26535;48.788;9.214;2024-01-30T09:05:59;5.60;99.90
40816;DHT22;26535;48.788;9.214;2024-01-30T09:08:25;5.60;99.90
40816;DHT22;26535;48.788;9.214;2024-01-30T09:10:51;5.70;99.90
40816;DHT22;26535;48.788;9.214;2024-01-30T09:13:16;5.80;99.70
40816;DHT22;26535;48.788;9.214;2024-01-30T09:15:42;5.90;99.40
40816;DHT22;26535;48.788;9.214;2024-01-30T09:18:09;6.00;99.20
40816;DHT22;26535;48.788;9.214;2024-01-30T09:20:34;6.10;98.80
40816;DHT22;26535;48.788;9.214;2024-01-30T09:23:00;6.30;98.70
40816;DHT22;26535;48.788;9.214;2024-01-30T09:25:26;6.50;98.30
40816;DHT22;26535;48.788;9.214;2024-01-30T09:27:51;6.60;97.80
40816;DHT22;26535;48.788;9.214;2024-01-30T09:30:17;6.70;97.40
40816;DHT22;26535;48.788;9.214;2024-01-30T09:32:43;6.80;97.30
40816;DHT22;26535;48.788;9.214;2024-01-30T09:35:09;6.90;96.90
40816;DHT22;26535;48.788;9.214;2024-01-30T09:37:34;7.10;96.90
40816;DHT22;26535;48.788;9.214;2024-01-30T09:40:01;7.20;96.50
40816;DHT22;26535;48.788;9.214;2024-01-30T09:42:33;7.20;96.30
40816;DHT22;26535;48.788;9.214;2024-01-30T09:45:03;7.30;96.10
40816;DHT22;26535;48.788;9.214;2024-01-30T09:47:39;7.50;95.80
40816;DHT22;26535;48.788;9.214;2024-01-30T09:50:10;7.50;95.40
40816;DHT22;26535;48.788;9.214;2024-01-30T09:52:36;7.60;95.20
40816;DHT22;26535;48.788;9.214;2024-01-30T09:55:03;7.50;95.10
40816;DHT22;26535;48.788;9.214;2024-01-30T09:57:29;7.70;95.00
40816;DHT22;26535;48.788;9.214;2024-01-30T09:59:57;7.90;94.60
40816;DHT22;26535;48.788;9.214;2024-01-30T10:02:23;8.00;94.10
40816;DHT22;26535;48.788;9.214;2024-01-30T10:04:50;8.30;94.00
40816;DHT22;26535;48.788;9.214;2024-01-30T10:07:16;8.40;93.30
40816;DHT22;26535;48.788;9.214;2024-01-30T10:09:42;8.60;93.20
40816;DHT22;26535;48.788;9.214;2024-01-30T10:12:09;8.60;93.00
40816;DHT22;26535;48.788;9.214;2024-01-30T10:14:44;8.70;92.90
40816;DHT22;26535;48.788;9.214;2024-01-30T10:17:11;8.90;92.50
40816;DHT22;26535;48.788;9.214;2024-01-30T10:19:41;9.00;92.30
40816;DHT22;26535;48.788;9.214;2024-01-30T10:22:07;9.10;92.00
40816;DHT22;26535;48.788;9.214;2024-01-30T10:24:36;9.10;91.90
40816;DHT22;26535;48.788;9.214;2024-01-30T10:27:02;9.20;91.70
40816;DHT22;26535;48.788;9.214;2024-01-30T10:29:28;9.30;91.70
40816;DHT22;26535;48.788;9.214;2024-01-30T10:32:12;9.50;91.60
40816;DHT22;26535;48.788;9.214;2024-01-30T10:34:38;9.60;91.30
40816;DHT22;26535;48.788;9.214;2024-01-30T10:37:10;9.80;91.30
40816;DHT22;26535;48.788;9.214;2024-01-30T10:39:44;9.80;91.10
40816;DHT22;26535;48.788;9.214;2024-01-30T10:42:13;9.80;91.10
40816;DHT22;26535;48.788;9.214;2024-01-30T10:45:00;9.90;91.10
40816;DHT22;26535;48.788;9.214;2024-01-30T10:47:29;9.90;90.90
40816;DHT22;26535;48.788;9.214;2024-01-30T10:49:56;9.90;90.80
40816;DHT22;26535;48.788;9.214;2024-01-30T10:52:26;10.00;90.70
40816;DHT22;26535;48.788;9.214;2024-01-30T10:54:53;10.20;90.30
40816;DHT22;26535;48.788;9.214;2024-01-30T10:57:19;10.40;90.40
40816;DHT22;26535;48.788;9.214;2024-01-30T10:59:48;10.60;90.30
40816;DHT22;26535;48.788;9.214;2024-01-30T11:02:15;10.60;89.90
40816;DHT22;26535;48.788;9.214;2024-01-30T11:04:41;10.80;89.90
40816;DHT22;26535;48.788;9.214;2024-01-30T11:07:17;10.80;89.40
40816;DHT22;26535;48.788;9.214;2024-01-30T11:10:05;10.90;87.90
40816;DHT22;26535;48.788;9.214;2024-01-30T11:12:37;11.00;88.60
40816;DHT22;26535;48.788;9.214;2024-01-30T11:15:10;11.20;88.60
40816;DHT22;26535;48.788;9.214;2024-01-30T11:20:25;11.30;87.30
40816;DHT22;26535;48.788;9.214;2024-01-30T11:22:52;11.40;87.80
40816;DHT22;26535;48.788;9.214;2024-01-30T11:25:20;11.30;87.70
40816;DHT22;26535;48.788;9.214;2024-01-30T11:27:46;11.20;87.90
40816;DHT22;26535;48.788;9.214;2024-01-30T11:30:25;11.30;87.80
40816;DHT22;26535;48.788;9.214;2024-01-30T11:33:02;11.30;87.90
40816;DHT22;26535;48.788;9.214;2024-01-30T11:35:35;11.50;87.60
40816;DHT22;26535;48.788;9.214;2024-01-30T11:38:02;11.70;87.00
40816;DHT22;26535;48.788;9.214;2024-01-30T11:40:28;11.80;86.90
40816;DHT22;26535;48.788;9.214;2024-01-30T11:42:59;11.70;87.00
40816;DHT22;26535;48.788;9.214;2024-01-30T11:45:25;11.70;87.00
40816;DHT22;26535;48.788;9.214;2024-01-30T11:47:51;11.80;87.00
40816;DHT22;26535;48.788;9.214;2024-01-30T11:50:17;12.00;86.20
40816;DHT22;26535;48.788;9.214;2024-01-30T11:52:43;12.00;86.10
40816;DHT22;26535;48.788;9.214;2024-01-30T11:55:10;12.20;86.00
40816;DHT22;26535;48.788;9.214;2024-01-30T11:57:36;12.30;85.00
40816;DHT22;26535;48.788;9.214;2024-01-30T12:00:06;12.40;84.50
40816;DHT22;26535;48.788;9.214;2024-01-30T12:02:42;12.50;85.20
40816;DHT22;26535;48.788;9.214;2024-01-30T12:05:08;12.70;83.80
40816;DHT22;26535;48.788;9.214;2024-01-30T12:07:37;12.90;83.30
40816;DHT22;26535;48.788;9.214;2024-01-30T12:10:03;12.90;83.20
40816;DHT22;26535;48.788;9.214;2024-01-30T12:12:34;12.90;83.30
40816;DHT22;26535;48.788;9.214;2024-01-30T12:15:03;12.90;83.20
40816;DHT22;26535;48.788;9.214;2024-01-30T12:17:33;12.90;83.30
40816;DHT22;26535;48.788;9.214;2024-01-30T12:20:11;13.00;82.60
40816;DHT22;26535;48.788;9.214;2024-01-30T12:22:38;13.10;83.20
40816;DHT22;26535;48.788;9.214;2024-01-30T12:25:07;13.10;82.20
40816;DHT22;26535;48.788;9.214;2024-01-30T12:27:33;13.30;81.90
40816;DHT22;26535;48.788;9.214;2024-01-30T12:29:59;13.50;81.70
40816;DHT22;26535;48.788;9.214;2024-01-30T12:32:25;13.30;81.70
40816;DHT22;26535;48.788;9.214;2024-01-30T12:34:55;13.50;81.90
40816;DHT22;26535;48.788;9.214;2024-01-30T12:37:20;13.70;81.50
40816;DHT22;26535;48.788;9.214;2024-01-30T12:39:48;13.80;81.20
40816;DHT22;26535;48.788;9.214;2024-01-30T12:42:14;13.90;81.90
40816;DHT22;26535;48.788;9.214;2024-01-30T12:44:41;13.90;80.40
40816;DHT22;26535;48.788;9.214;2024-01-30T12:47:09;14.00;79.80
40816;DHT22;26535;48.788;9.214;2024-01-30T12:49:35;14.30;79.60
40816;DHT22;26535;48.788;9.214;2024-01-30T12:52:01;14.70;78.40
40816;DHT22;26535;48.788;9.214;2024-01-30T12:54:27;15.70;77.20
40816;DHT22;26535;48.788;9.214;2024-01-30T12:56:52;16.30;73.80
40816;DHT22;26535;48.788;9.214;2024-01-30T12:59:18;16.30;72.10
40816;DHT22;26535;48.788;9.214;2024-01-30T13:01:52;16.60;71.70
40816;DHT22;26535;48.788;9.214;2024-01-30T13:04:19;16.20;72.10
40816;DHT22;26535;48.788;9.214;2024-01-30T13:06:45;15.90;73.10
40816;DHT22;26535;48.788;9.214;2024-01-30T13:09:11;15.70;73.10
40816;DHT22;26535;48.788;9.214;2024-01-30T13:11:36;15.30;73.80
40816;DHT22;26535;48.788;9.214;2024-01-30T13:14:04;15.40;74.10
40816;DHT22;26535;48.788;9.214;2024-01-30T13:16:30;15.60;73.70
40816;DHT22;26535;48.788;9.214;2024-01-30T13:18:59;16.00;72.50
40816;DHT22;26535;48.788;9.214;2024-01-30T13:21:26;16.50;71.60
40816;DHT22;26535;48.788;9.214;2024-01-30T13:23:55;17.20;70.20
40816;DHT22;26535;48.788;9.214;2024-01-30T13:26:23;17.90;68.80
40816;DHT22;26535;48.788;9.214;2024-01-30T13:29:07;18.60;67.40
40816;DHT22;26535;48.788;9.214;2024-01-30T13:31:34;18.50;66.50
40816;DHT22;26535;48.788;9.214;2024-01-30T13:34:00;18.20;66.90
40816;DHT22;26535;48.788;9.214;2024-01-30T13:36:25;17.70;67.50
40816;DHT22;26535;48.788;9.214;2024-01-30T13:42:07;16.70;71.00
40816;DHT22;26535;48.788;9.214;2024-01-30T13:45:06;16.30;70.50
40816;DHT22;26535;48.788;9.214;2024-01-30T13:47:31;15.90;71.80
40816;DHT22;26535;48.788;9.214;2024-01-30T13:49:58;15.90;72.50
40816;DHT22;26535;48.788;9.214;2024-01-30T13:52:24;15.80;72.90
40816;DHT22;26535;48.788;9.214;2024-01-30T13:54:51;15.70;72.80
40816;DHT22;26535;48.788;9.214;2024-01-30T13:57:18;15.80;72.90
40816;DHT22;26535;48.788;9.214;2024-01-30T13:59:45;15.90;72.90
40816;DHT22;26535;48.788;9.214;2024-01-30T14:02:11;15.90;72.00
40816;DHT22;26535;48.788;9.214;2024-01-30T14:04:38;15.90;72.10
40816;DHT22;26535;48.788;9.214;2024-01-30T14:07:05;15.80;72.80
40816;DHT22;26535;48.788;9.214;2024-01-30T14:09:32;15.50;72.90
40816;DHT22;26535;48.788;9.214;2024-01-30T14:11:58;15.40;74.10
40816;DHT22;26535;48.788;9.214;2024-01-30T14:14:24;15.20;73.90
40816;DHT22;26535;48.788;9.214;2024-01-30T14:16:49;14.90;74.90
40816;DHT22;26535;48.788;9.214;2024-01-30T14:19:16;14.70;76.00
40816;DHT22;26535;48.788;9.214;2024-01-30T14:21:41;14.60;75.80
40816;DHT22;26535;48.788;9.214;2024-01-30T14:24:07;14.60;76.40
40816;DHT22;26535;48.788;9.214;2024-01-30T14:26:33;14.50;77.90
40816;DHT22;26535;48.788;9.214;2024-01-30T14:28:59;14.40;76.60
40816;DHT22;26535;48.788;9.214;2024-01-30T14:31:24;14.40;76.40
40816;DHT22;26535;48.788;9.214;2024-01-30T14:33:50;14.40;76.80
40816;DHT22;26535;48.788;9.214;2024-01-30T14:36:16;14.30;78.00
40816;DHT22;26535;48.788;9.214;2024-01-30T14:38:42;14.40;77.80
40816;DHT22;26535;48.788;9.214;2024-01-30T14:41:07;14.30;77.10
40816;DHT22;26535;48.788;9.214;2024-01-30T14:43:33;14.10;77.20
40816;DHT22;26535;48.788;9.214;2024-01-30T14:45:59;14.10;78.70
40816;DHT22;26535;48.788;9.214;2024-01-30T14:48:24;14.10;78.00
40816;DHT22;26535;48.788;9.214;2024-01-30T14:50:50;14.00;77.90
40816;DHT22;26535;48.788;9.214;2024-01-30T14:53:16;14.00;80.80
40816;DHT22;26535;48.788;9.214;2024-01-30T14:55:41;13.90;79.50
40816;DHT22;26535;48.788;9.214;2024-01-30T14:58:07;13.90;80.10
40816;DHT22;26535;48.788;9.214;2024-01-30T15:00:33;13.70;80.20
40816;DHT22;26535;48.788;9.214;2024-01-30T15:02:59;13.50;81.60
40816;DHT22;26535;48.788;9.214;2024-01-30T15:05:24;13.30;82.40
40816;DHT22;26535;48.788;9.214;2024-01-30T15:07:50;13.20;83.60
40816;DHT22;26535;48.788;9.214;2024-01-30T15:10:16;13.10;85.30
40816;DHT22;26535;48.788;9.214;2024-01-30T15:12:42;12.90;84.10
40816;DHT22;26535;48.788;9.214;2024-01-30T15:15:08;12.80;84.50
40816;DHT22;26535;48.788;9.214;2024-01-30T15:17:34;12.60;84.90
40816;DHT22;26535;48.788;9.214;2024-01-30T15:20:00;12.50;85.20
40816;DHT22;26535;48.788;9.214;2024-01-30T15:22:26;12.40;85.60
40816;DHT22;26535;48.788;9.214;2024-01-30T15:24:51;12.30;86.30
40816;DHT22;26535;48.788;9.214;2024-01-30T15:27:17;12.30;87.50
40816;DHT22;26535;48.788;9.214;2024-01-30T15:29:45;12.30;89.20
40816;DHT22;26535;48.788;9.214;2024-01-30T15:32:11;12.30;90.60
40816;DHT22;26535;48.788;9.214;2024-01-30T15:34:36;12.20;88.30
40816;DHT22;26535;48.788;9.214;2024-01-30T15:37:02;12.10;87.60
40816;DHT22;26535;48.788;9.214;2024-01-30T15:39:28;12.10;89.10
40816;DHT22;26535;48.788;9.214;2024-01-30T15:41:54;12.00;88.10
40816;DHT22;26535;48.788;9.214;2024-01-30T15:44:20;11.90;88.70
40816;DHT22;26535;48.788;9.214;2024-01-30T15:46:46;11.80;88.80
40816;DHT22;26535;48.788;9.214;2024-01-30T15:49:12;11.70;90.00
40816;DHT22;26535;48.788;9.214;2024-01-30T15:51:38;11.70;90.40
40816;DHT22;26535;48.788;9.214;2024-01-30T15:54:03;11.60;89.10
40816;DHT22;26535;48.788;9.214;2024-01-30T15:56:29;11.50;90.50